createdAt,value
2022-11-22T00:00:21.075Z,7.66
2022-11-22T00:02:47.786Z,7.65
2022-11-22T00:05:14.869Z,7.81
2022-11-22T00:07:41.830Z,8.12
2022-11-22T00:10:11.212Z,8.22
2022-11-22T00:12:37.934Z,7.81
2022-11-22T00:15:07.649Z,7.91
2022-11-22T00:17:35.046Z,8.21
2022-11-22T00:20:01.761Z,7.89
2022-11-22T00:22:31.470Z,8.05
2022-11-22T00:24:58.634Z,7.55
2022-11-22T00:27:25.817Z,8.00
2022-11-22T00:29:52.707Z,8.13
2022-11-22T00:32:19.402Z,8.33
2022-11-22T00:34:45.966Z,8.46
2022-11-22T00:37:12.688Z,8.08
2022-11-22T00:39:39.412Z,8.04
2022-11-22T00:42:06.191Z,7.81
2022-11-22T00:44:32.847Z,8.01
2022-11-22T00:46:59.580Z,8.28
2022-11-22T00:49:26.451Z,8.09
2022-11-22T00:51:53.167Z,8.06
2022-11-22T00:54:19.893Z,7.95
2022-11-22T00:56:46.492Z,7.91
2022-11-22T00:59:13.391Z,8.18
2022-11-22T01:01:40.041Z,8.01
2022-11-22T01:04:10.655Z,7.85
2022-11-22T01:06:37.644Z,8.15
2022-11-22T01:09:04.737Z,7.95
2022-11-22T01:11:35.265Z,7.91
2022-11-22T01:14:02.122Z,8.02
2022-11-22T01:16:28.870Z,7.91
2022-11-22T01:18:55.543Z,7.80
2022-11-22T01:21:22.221Z,8.06
2022-11-22T01:23:48.803Z,7.85
2022-11-22T01:26:15.549Z,8.05
2022-11-22T01:28:42.141Z,8.02
2022-11-22T01:31:09.260Z,7.97
2022-11-22T01:33:36.318Z,8.10
2022-11-22T01:36:03.149Z,7.92
2022-11-22T01:38:29.816Z,8.25
2022-11-22T01:40:56.562Z,8.48
2022-11-22T01:43:26.032Z,8.24
2022-11-22T01:45:54.875Z,8.32
2022-11-22T01:48:42.570Z,8.15
2022-11-22T01:51:29.768Z,7.88
2022-11-22T01:54:00.177Z,7.82
2022-11-22T01:56:29.431Z,7.66
2022-11-22T01:59:05.034Z,7.95
2022-11-22T02:01:32.879Z,8.01
2022-11-22T02:04:02.547Z,8.00
2022-11-22T02:06:47.359Z,7.87
2022-11-22T02:09:14.584Z,8.03
2022-11-22T02:11:50.116Z,7.92
2022-11-22T02:14:20.234Z,8.07
2022-11-22T02:16:48.253Z,7.85
2022-11-22T02:19:21.879Z,8.01
2022-11-22T02:21:54.729Z,8.23
2022-11-22T02:24:31.404Z,8.43
2022-11-22T02:26:58.495Z,8.20
2022-11-22T02:29:25.472Z,8.20
2022-11-22T02:31:52.075Z,7.88
2022-11-22T02:34:19.474Z,7.96
2022-11-22T02:36:50.503Z,7.94
2022-11-22T02:39:20.201Z,8.18
2022-11-22T02:41:47.940Z,8.18
2022-11-22T02:44:15.514Z,8.15
2022-11-22T02:47:08.372Z,8.23
2022-11-22T02:49:35.045Z,8.41
2022-11-22T02:52:01.626Z,8.42
2022-11-22T02:54:28.333Z,7.89
2022-11-22T02:56:55.307Z,7.94
2022-11-22T02:59:22.156Z,7.94
2022-11-22T03:01:48.919Z,8.31
2022-11-22T03:04:24.818Z,8.18
2022-11-22T03:06:56.484Z,8.12
2022-11-22T03:09:24.729Z,8.31
2022-11-22T03:11:51.716Z,8.18
2022-11-22T03:14:18.451Z,8.30
2022-11-22T03:16:46.983Z,8.43
2022-11-22T03:19:14.198Z,8.35
2022-11-22T03:21:42.051Z,8.24
2022-11-22T03:24:09.603Z,8.29
2022-11-22T03:26:36.734Z,8.40
2022-11-22T03:29:04.213Z,8.43
2022-11-22T03:31:30.802Z,8.49
2022-11-22T03:33:57.766Z,8.33
2022-11-22T03:36:24.501Z,8.06
2022-11-22T03:38:51.162Z,8.40
2022-11-22T03:41:17.788Z,8.38
2022-11-22T03:43:44.523Z,8.28
2022-11-22T03:46:19.478Z,8.45
2022-11-22T03:48:46.629Z,8.44
2022-11-22T03:51:13.492Z,8.43
2022-11-22T03:53:40.346Z,8.42
2022-11-22T03:56:07.022Z,8.23
2022-11-22T03:58:34.105Z,8.39
2022-11-22T04:01:01.081Z,8.29
2022-11-22T04:03:28.448Z,8.39
2022-11-22T04:05:55.104Z,8.39
2022-11-22T04:08:21.755Z,8.40
2022-11-22T04:10:49.605Z,8.46
2022-11-22T04:13:16.369Z,8.26
2022-11-22T04:15:43.049Z,8.21
2022-11-22T04:18:13.986Z,8.18
2022-11-22T04:20:59.728Z,8.42
2022-11-22T04:23:32.285Z,7.96
2022-11-22T04:26:00.780Z,8.31
2022-11-22T04:28:53.663Z,8.48
2022-11-22T04:31:32.838Z,8.33
2022-11-22T04:33:59.416Z,8.35
2022-11-22T04:36:26.168Z,8.28
2022-11-22T04:38:52.747Z,8.19
2022-11-22T04:41:19.354Z,8.26
2022-11-22T04:44:04.711Z,8.29
2022-11-22T04:46:31.782Z,8.19
2022-11-22T04:48:58.415Z,8.24
2022-11-22T04:51:43.680Z,8.18
2022-11-22T04:54:10.308Z,8.14
2022-11-22T04:56:36.925Z,8.02
2022-11-22T04:59:03.613Z,8.01
2022-11-22T05:01:30.355Z,8.10
2022-11-22T05:03:56.972Z,8.11
2022-11-22T05:06:23.623Z,8.08
2022-11-22T05:08:50.300Z,8.07
2022-11-22T05:11:16.968Z,7.95
2022-11-22T05:13:44.046Z,8.02
2022-11-22T05:16:13.361Z,8.06
2022-11-22T05:18:40.841Z,8.05
2022-11-22T05:21:09.944Z,8.08
2022-11-22T05:23:55.309Z,8.01
2022-11-22T05:26:23.145Z,8.12
2022-11-22T05:28:50.348Z,8.17
2022-11-22T05:31:23.026Z,8.16
2022-11-22T05:33:52.100Z,8.10
2022-11-22T05:36:19.323Z,8.12
2022-11-22T05:38:46.241Z,8.03
2022-11-22T05:41:14.838Z,8.05
2022-11-22T05:43:41.604Z,8.09
2022-11-22T05:46:13.028Z,8.06
2022-11-22T05:48:41.940Z,8.07
2022-11-22T05:51:16.279Z,8.17
2022-11-22T05:53:44.163Z,8.18
2022-11-22T05:56:13.775Z,8.13
2022-11-22T05:58:41.607Z,8.14
2022-11-22T06:01:15.843Z,8.06
2022-11-22T06:03:42.790Z,8.11
2022-11-22T06:06:10.530Z,8.14
2022-11-22T06:08:45.200Z,8.13
2022-11-22T06:11:21.349Z,8.03
2022-11-22T06:13:50.438Z,8.17
2022-11-22T06:16:17.192Z,8.04
2022-11-22T06:18:44.511Z,8.20
2022-11-22T06:21:16.610Z,8.04
2022-11-22T06:23:43.860Z,8.32
2022-11-22T06:26:13.522Z,7.96
2022-11-22T06:28:40.818Z,8.06
2022-11-22T06:31:14.053Z,8.21
2022-11-22T06:33:42.007Z,8.29
2022-11-22T06:36:13.842Z,8.32
2022-11-22T06:38:41.912Z,8.27
2022-11-22T06:41:14.821Z,8.29
2022-11-22T06:43:48.230Z,8.22
2022-11-22T06:46:20.127Z,8.30
2022-11-22T06:48:47.694Z,8.26
2022-11-22T06:51:19.978Z,8.25
2022-11-22T06:53:49.070Z,8.17
2022-11-22T06:56:21.259Z,8.23
2022-11-22T06:58:49.615Z,8.14
2022-11-22T07:01:24.993Z,8.19
2022-11-22T07:03:56.010Z,8.08
2022-11-22T07:06:22.715Z,7.94
2022-11-22T07:08:49.430Z,7.90
2022-11-22T07:11:25.085Z,8.08
2022-11-22T07:13:52.580Z,7.91
2022-11-22T07:16:21.327Z,8.09
2022-11-22T07:18:49.302Z,8.03
2022-11-22T07:21:21.369Z,8.16
2022-11-22T07:23:50.010Z,8.11
2022-11-22T07:26:18.308Z,8.02
2022-11-22T07:28:45.920Z,8.03
2022-11-22T07:31:14.009Z,8.10
2022-11-22T07:33:41.842Z,8.09
2022-11-22T07:36:13.825Z,8.03
2022-11-22T07:38:40.516Z,8.13
2022-11-22T07:41:08.262Z,8.25
2022-11-22T07:43:35.253Z,8.12
2022-11-22T07:46:08.073Z,8.10
2022-11-22T07:48:34.927Z,8.05
2022-11-22T07:51:06.798Z,8.01
2022-11-22T07:53:34.616Z,8.11
2022-11-22T07:56:05.164Z,8.11
2022-11-22T07:58:33.066Z,8.09
2022-11-22T08:01:12.186Z,8.00
2022-11-22T08:03:39.533Z,8.12
2022-11-22T08:06:08.179Z,8.13
2022-11-22T08:08:35.663Z,8.02
2022-11-22T08:11:03.191Z,7.72
2022-11-22T08:13:30.538Z,8.04
2022-11-22T08:16:05.063Z,8.06
2022-11-22T08:18:32.464Z,7.97
2022-11-22T08:21:18.636Z,8.09
2022-11-22T08:23:46.287Z,8.13
2022-11-22T08:26:15.512Z,8.11
2022-11-22T08:28:43.084Z,8.01
2022-11-22T08:31:15.652Z,7.99
2022-11-22T08:33:42.325Z,8.29
2022-11-22T08:36:09.048Z,8.11
2022-11-22T08:38:36.072Z,8.26
2022-11-22T08:41:04.082Z,8.41
2022-11-22T08:43:31.482Z,8.39
2022-11-22T08:45:59.399Z,8.32
2022-11-22T08:48:26.640Z,8.39
2022-11-22T08:50:55.373Z,8.30
2022-11-22T08:53:23.462Z,8.42
2022-11-22T08:55:50.315Z,8.27
2022-11-22T08:58:17.391Z,8.15
2022-11-22T09:00:44.434Z,8.45
2022-11-22T09:03:11.248Z,8.48
2022-11-22T09:08:24.444Z,8.48
2022-11-22T09:10:51.177Z,8.35
2022-11-22T09:13:17.825Z,8.49
2022-11-22T09:15:44.645Z,8.55
2022-11-22T09:18:11.324Z,8.66
2022-11-22T09:20:38.101Z,8.43
2022-11-22T09:23:04.789Z,8.46
2022-11-22T09:25:31.434Z,8.59
2022-11-22T09:28:02.962Z,8.52
2022-11-22T09:30:30.731Z,8.27
2022-11-22T09:32:57.412Z,8.53
2022-11-22T09:35:24.094Z,8.30
2022-11-22T09:37:50.815Z,8.31
2022-11-22T09:40:17.517Z,8.25
2022-11-22T09:43:21.597Z,8.26
2022-11-22T09:46:22.320Z,8.52
2022-11-22T09:49:11.798Z,8.59
2022-11-22T09:51:52.057Z,8.71
2022-11-22T09:54:24.572Z,8.93
2022-11-22T09:56:54.444Z,9.11
2022-11-22T09:59:30.502Z,8.86
2022-11-22T10:02:43.594Z,8.95
2022-11-22T10:05:25.957Z,8.91
2022-11-22T10:08:01.588Z,9.07
2022-11-22T10:10:38.667Z,8.79
2022-11-22T10:13:15.310Z,8.74
2022-11-22T10:16:11.583Z,8.84
2022-11-22T10:18:50.411Z,8.47
2022-11-22T10:21:19.649Z,8.74
2022-11-22T10:23:47.492Z,8.72
2022-11-22T10:26:29.363Z,8.94
2022-11-22T10:28:58.847Z,8.83
2022-11-22T10:32:03.721Z,8.83
2022-11-22T10:34:53.427Z,8.93
2022-11-22T10:37:37.656Z,8.95
2022-11-22T10:40:13.410Z,9.10
2022-11-22T10:42:49.795Z,9.04
2022-11-22T10:45:29.679Z,9.27
2022-11-22T10:48:35.682Z,9.11
2022-11-22T10:51:45.082Z,8.93
2022-11-22T10:54:23.446Z,8.86
2022-11-22T10:57:00.783Z,8.70
2022-11-22T10:59:46.027Z,8.87
2022-11-22T11:02:29.879Z,8.96
2022-11-22T11:04:59.221Z,8.71
2022-11-22T11:07:26.663Z,8.61
2022-11-22T11:10:11.169Z,8.69
2022-11-22T11:12:52.700Z,8.86
2022-11-22T11:15:27.429Z,8.93
2022-11-22T11:18:01.045Z,9.02
2022-11-22T11:20:34.940Z,9.14
2022-11-22T11:23:17.058Z,9.31
2022-11-22T11:25:45.974Z,9.34
2022-11-22T11:28:21.064Z,9.21
2022-11-22T11:31:07.833Z,9.34
2022-11-22T11:33:38.221Z,9.03
2022-11-22T11:36:16.849Z,9.12
2022-11-22T11:38:43.370Z,9.12
2022-11-22T11:41:25.445Z,9.26
2022-11-22T11:43:54.647Z,9.34
2022-11-22T11:46:24.319Z,9.21
2022-11-22T11:48:53.418Z,9.51
2022-11-22T11:51:31.261Z,9.30
2022-11-22T11:54:10.537Z,9.38
2022-11-22T11:56:50.525Z,9.78
2022-11-22T11:59:30.866Z,9.58
2022-11-22T12:02:04.727Z,9.41
2022-11-22T12:04:35.956Z,9.48
2022-11-22T12:07:18.737Z,9.61
2022-11-22T12:09:48.562Z,9.49
2022-11-22T12:12:31.465Z,9.56
2022-11-22T12:15:12.113Z,9.47
2022-11-22T12:17:49.665Z,9.75
2022-11-22T12:20:22.057Z,9.46
2022-11-22T12:23:16.617Z,9.68
2022-11-22T12:25:44.560Z,9.60
2022-11-22T12:28:20.215Z,9.63
2022-11-22T12:30:56.738Z,9.62
2022-11-22T12:34:02.348Z,9.59
2022-11-22T12:36:41.699Z,9.67
2022-11-22T12:39:15.066Z,9.56
2022-11-22T12:41:43.748Z,9.66
2022-11-22T12:44:15.957Z,9.70
2022-11-22T12:46:50.789Z,9.70
2022-11-22T12:49:32.453Z,9.86
2022-11-22T12:52:23.775Z,9.77
2022-11-22T12:55:11.861Z,9.71
2022-11-22T12:57:52.757Z,9.68
2022-11-22T13:00:22.537Z,9.87
2022-11-22T13:03:04.519Z,9.88
2022-11-22T13:05:56.024Z,9.76
2022-11-22T13:08:40.562Z,9.82
2022-11-22T13:11:39.719Z,9.81
2022-11-22T13:14:29.221Z,9.70
2022-11-22T13:16:57.064Z,9.86
2022-11-22T13:19:27.009Z,9.64
2022-11-22T13:22:15.272Z,9.79
2022-11-22T13:25:26.445Z,9.78
2022-11-22T13:27:58.795Z,9.58
2022-11-22T13:30:27.659Z,9.56
2022-11-22T13:32:57.004Z,9.49
2022-11-22T13:35:35.593Z,9.58
2022-11-22T13:38:06.065Z,9.58
2022-11-22T13:41:19.126Z,9.41
2022-11-22T13:43:57.630Z,9.35
2022-11-22T13:46:49.273Z,9.61
2022-11-22T13:49:38.948Z,9.46
2022-11-22T13:52:12.723Z,9.72
2022-11-22T13:54:46.767Z,9.67
2022-11-22T13:57:29.592Z,9.71
2022-11-22T14:00:11.581Z,9.73
2022-11-22T14:02:55.177Z,9.65
2022-11-22T14:05:26.619Z,9.65
2022-11-22T14:07:58.557Z,9.66
2022-11-22T14:10:36.447Z,9.63
2022-11-22T14:13:08.815Z,9.52
2022-11-22T14:15:47.569Z,9.33
2022-11-22T14:18:42.105Z,9.44
2022-11-22T14:21:30.486Z,9.36
2022-11-22T14:24:05.270Z,9.42
2022-11-22T14:26:58.318Z,9.49
2022-11-22T14:29:43.671Z,9.41
2022-11-22T14:32:20.680Z,9.41
2022-11-22T14:35:05.662Z,9.20
2022-11-22T14:37:32.437Z,9.13
2022-11-22T14:40:14.151Z,9.03
2022-11-22T14:42:47.047Z,9.14
2022-11-22T14:45:23.143Z,9.11
2022-11-22T14:47:53.276Z,9.15
2022-11-22T14:50:25.730Z,9.07
2022-11-22T14:52:55.502Z,8.99
2022-11-22T14:55:27.495Z,9.00
2022-11-22T14:58:12.403Z,9.06
2022-11-22T15:00:55.267Z,9.04
2022-11-22T15:03:52.143Z,9.09
2022-11-22T15:09:20.354Z,8.94
2022-11-22T15:10:25.445Z,9.00
2022-11-22T15:12:58.152Z,8.80
2022-11-22T15:59:46.780Z,8.89
2022-11-22T16:02:18.237Z,8.80
2022-11-22T16:06:05.814Z,8.81
2022-11-22T16:07:54.917Z,8.72
2022-11-22T16:10:33.060Z,8.50
2022-11-22T16:13:11.163Z,8.47
2022-11-22T16:15:37.965Z,8.51
2022-11-22T16:18:14.938Z,8.55
2022-11-22T16:20:42.925Z,8.47
2022-11-22T16:23:09.466Z,8.51
2022-11-22T16:25:38.917Z,8.46
2022-11-22T16:28:27.461Z,8.40
2022-11-22T16:30:56.360Z,8.59
2022-11-22T16:33:23.816Z,8.44
2022-11-22T16:35:59.421Z,8.41
2022-11-22T16:38:27.266Z,8.44
2022-11-22T16:40:56.941Z,8.36
2022-11-22T16:43:26.053Z,8.04
2022-11-22T16:45:52.710Z,8.46
2022-11-22T16:48:37.903Z,8.59
2022-11-22T16:51:13.369Z,8.35
2022-11-22T16:53:46.094Z,8.54
2022-11-22T16:56:19.453Z,8.43
2022-11-22T16:58:48.120Z,8.38
2022-11-22T17:01:17.212Z,8.28
2022-11-22T17:03:46.284Z,8.15
2022-11-22T17:06:22.244Z,8.36
2022-11-22T17:08:50.789Z,8.23
2022-11-22T17:11:20.154Z,8.21
2022-11-22T17:13:47.971Z,8.17
2022-11-22T17:16:17.749Z,8.37
2022-11-22T17:18:46.128Z,8.45
2022-11-22T17:21:26.465Z,8.18
2022-11-22T17:23:56.744Z,8.34
2022-11-22T17:26:24.021Z,8.14
2022-11-22T17:28:50.729Z,8.18
2022-11-22T17:31:19.696Z,8.18
2022-11-22T17:33:53.385Z,8.12
2022-11-22T17:36:26.643Z,8.03
2022-11-22T17:38:53.326Z,8.20
2022-11-22T17:41:20.039Z,8.07
2022-11-22T17:43:46.838Z,8.18
2022-11-22T17:46:13.774Z,8.19
2022-11-22T17:48:40.529Z,8.10
2022-11-22T17:51:11.815Z,8.22
2022-11-22T17:53:39.145Z,8.13
2022-11-22T17:56:10.893Z,8.15
2022-11-22T17:58:39.217Z,8.10
2022-11-22T18:01:08.024Z,8.18
2022-11-22T18:03:34.812Z,8.12
2022-11-22T18:06:02.107Z,8.10
2022-11-22T18:08:29.303Z,8.05
2022-11-22T18:10:57.203Z,7.99
2022-11-22T18:13:23.847Z,8.10
2022-11-22T18:15:51.868Z,8.08
2022-11-22T18:18:48.630Z,8.02
2022-11-22T18:21:11.448Z,7.99
2022-11-22T18:23:40.873Z,7.87
2022-11-22T18:26:41.834Z,7.82
2022-11-22T18:29:35.145Z,8.06
2022-11-22T18:31:52.194Z,7.92
2022-11-22T18:34:19.755Z,7.87
2022-11-22T18:37:03.806Z,7.84
2022-11-22T18:39:34.103Z,7.94
2022-11-22T18:42:01.508Z,7.94
2022-11-22T18:44:28.249Z,7.96
2022-11-22T18:46:55.221Z,7.95
2022-11-22T18:49:21.908Z,7.89
2022-11-22T18:51:48.651Z,7.97
2022-11-22T18:54:15.963Z,8.01
2022-11-22T18:56:42.699Z,7.99
2022-11-22T18:59:12.703Z,7.95
2022-11-22T19:01:40.826Z,7.94
2022-11-22T19:04:07.974Z,7.84
2022-11-22T19:06:34.754Z,7.92
2022-11-22T19:09:02.353Z,7.86
2022-11-22T19:11:30.911Z,8.07
2022-11-22T19:13:57.755Z,8.04
2022-11-22T19:16:25.765Z,8.10
2022-11-22T19:18:52.637Z,8.07
2022-11-22T19:21:22.037Z,8.06
2022-11-22T19:23:52.753Z,7.91
2022-11-22T19:26:22.385Z,7.91
2022-11-22T19:28:53.416Z,7.99
2022-11-22T19:31:21.956Z,7.99
2022-11-22T19:33:49.418Z,7.94
2022-11-22T19:36:18.331Z,7.98
2022-11-22T19:38:45.563Z,7.98
2022-11-22T19:41:23.764Z,7.89
2022-11-22T19:43:51.423Z,7.91
2022-11-22T19:46:20.004Z,8.01
2022-11-22T19:48:51.731Z,7.93
2022-11-22T19:51:18.920Z,7.96
2022-11-22T19:53:45.621Z,7.78
2022-11-22T19:56:18.455Z,7.70
2022-11-22T19:58:50.933Z,7.74
2022-11-22T20:01:18.283Z,7.78
2022-11-22T20:03:45.873Z,7.56
2022-11-22T20:06:14.228Z,7.64
2022-11-22T20:08:41.287Z,8.08
2022-11-22T20:11:10.296Z,8.12
2022-11-22T20:13:39.615Z,7.98
2022-11-22T20:16:11.908Z,7.74
2022-11-22T20:18:38.575Z,7.69
2022-11-22T20:21:06.951Z,7.45
2022-11-22T20:23:33.769Z,7.39
2022-11-22T20:26:04.993Z,7.36
2022-11-22T20:28:31.796Z,7.37
2022-11-22T20:31:13.542Z,7.41
2022-11-22T20:33:42.711Z,7.42
2022-11-22T20:36:14.531Z,7.32
2022-11-22T20:38:42.932Z,7.47
2022-11-22T20:41:11.672Z,7.54
2022-11-22T20:43:38.329Z,7.58
2022-11-22T20:46:13.633Z,7.61
2022-11-22T20:48:42.096Z,7.69
2022-11-22T20:51:12.014Z,7.77
2022-11-22T20:53:38.814Z,7.67
2022-11-22T20:56:05.829Z,7.64
2022-11-22T20:58:33.234Z,7.47
2022-11-22T21:01:05.503Z,7.45
2022-11-22T21:03:33.599Z,7.36
2022-11-22T21:06:01.726Z,7.29
2022-11-22T21:08:28.748Z,7.23
2022-11-22T21:11:11.650Z,7.35
2022-11-22T21:13:39.233Z,7.30
2022-11-22T21:16:22.158Z,7.37
2022-11-22T21:18:54.817Z,7.44
2022-11-22T21:21:23.263Z,7.49
2022-11-22T21:23:55.496Z,7.69
2022-11-22T21:26:23.475Z,7.78
2022-11-22T21:28:50.436Z,7.31
2022-11-22T21:31:17.464Z,7.52
2022-11-22T21:33:45.514Z,7.97
2022-11-22T21:36:12.352Z,8.05
2022-11-22T21:38:39.046Z,7.76
2022-11-22T21:41:37.688Z,7.93
2022-11-22T21:43:56.323Z,7.76
2022-11-22T21:46:23.432Z,7.52
2022-11-22T21:48:50.428Z,7.81
2022-11-22T21:51:17.349Z,7.67
2022-11-22T21:53:44.011Z,7.80
2022-11-22T21:56:10.641Z,7.69
2022-11-22T21:58:37.448Z,7.64
2022-11-22T22:01:09.535Z,7.74
2022-11-22T22:03:40.253Z,7.70
2022-11-22T22:06:07.175Z,7.86
2022-11-22T22:08:34.033Z,7.55
2022-11-22T22:11:04.974Z,7.75
2022-11-22T22:13:32.268Z,7.72
2022-11-22T22:16:01.198Z,7.75
2022-11-22T22:18:32.210Z,7.73
2022-11-22T22:21:07.213Z,7.73
2022-11-22T22:23:35.384Z,7.74
2022-11-22T22:26:06.706Z,7.80
2022-11-22T22:28:35.559Z,7.65
2022-11-22T22:31:23.361Z,7.63
2022-11-22T22:33:54.686Z,7.68
2022-11-22T22:36:22.267Z,7.68
2022-11-22T22:38:49.172Z,7.69
2022-11-22T22:41:16.830Z,7.41
2022-11-22T22:43:46.212Z,7.40
2022-11-22T22:46:15.500Z,7.49
2022-11-22T22:48:43.215Z,7.44
2022-11-22T22:51:21.440Z,7.52
2022-11-22T22:53:48.725Z,7.66
2022-11-22T22:56:17.048Z,7.72
2022-11-22T22:58:44.417Z,7.47
2022-11-22T23:01:19.719Z,7.60
2022-11-22T23:03:50.472Z,7.29
2022-11-22T23:06:17.866Z,7.27
2022-11-22T23:08:46.837Z,7.39
2022-11-22T23:11:14.254Z,7.49
2022-11-22T23:13:42.384Z,7.57
2022-11-22T23:16:11.474Z,7.39
2022-11-22T23:18:43.951Z,7.30
2022-11-22T23:21:13.541Z,7.21
2022-11-22T23:23:40.671Z,7.11
2022-11-22T23:26:10.591Z,7.56
2022-11-22T23:28:38.054Z,7.72
2022-11-22T23:31:09.623Z,7.44
2022-11-22T23:33:36.349Z,7.75
2022-11-22T23:36:08.674Z,7.67
2022-11-22T23:38:36.211Z,7.40
2022-11-22T23:41:03.604Z,7.48
2022-11-22T23:43:31.084Z,7.91
2022-11-22T23:46:01.247Z,7.90
2022-11-22T23:48:28.261Z,8.03
2022-11-22T23:50:54.940Z,7.74
2022-11-22T23:53:21.711Z,7.95
2022-11-22T23:55:48.340Z,7.85
2022-11-22T23:58:14.985Z,7.82
